Wilson Newcastle — 9HA2628 — position and weather

sailwx.info

Track history (hours):
 
Tides and Currents Weather Stations Pressure Air Temp Water Temp Dewpoint Dewpoint Depression Visibility Wind Speed Wind Dir Waves Ship Positions

Wilson Newcastle

Last reported at 2018-Jun-18 19:30 UTC. Time now 2018-Jun-18 19:29 UTC.
Position N 54°24' E 018°40'.

Length 123 m; draft 7.6 m.

Type: Ship. MMSI: 215062000.

Date/timePositionNaut miles runAvg speedWind from/ knotsBaromVisibWave heightAir tempDewpointWater temp
2018-Jun-18 19:30N 54°24' E 018°40'0 0.0
2018-Jun-18 19:00N 54°24' E 018°40'0 0.0
2018-Jun-18 18:30N 54°24' E 018°40'0 0.0
2018-Jun-18 18:00N 54°24' E 018°40'0 0.0
2018-Jun-18 17:30N 54°24' E 018°40'0 0.0
2018-Jun-18 17:00N 54°24' E 018°40'0 0.0
2018-Jun-18 16:30N 54°24' E 018°40'0 0.0
2018-Jun-18 16:00N 54°24' E 018°40'0 0.0
2018-Jun-18 15:30N 54°24' E 018°40'0 0.0
2018-Jun-18 15:00N 54°24' E 018°40'0 0.0
2018-Jun-18 14:30N 54°24' E 018°40'0 0.0
2018-Jun-18 14:00N 54°24' E 018°40'0 0.0
2018-Jun-18 13:30N 54°24' E 018°40'0 0.0
2018-Jun-18 13:00N 54°24' E 018°40'0 0.0
2018-Jun-18 12:30N 54°24' E 018°40'0 0.0
2018-Jun-18 12:00N 54°24' E 018°40'0 0.0
2018-Jun-18 11:30N 54°24' E 018°40'0 0.0
2018-Jun-18 11:00N 54°24' E 018°40'0 0.0
2018-Jun-18 10:30N 54°24' E 018°40'0 0.0
2018-Jun-18 10:00N 54°24' E 018°40'0 0.0
2018-Jun-18 09:30N 54°24' E 018°40'0 0.0
2018-Jun-18 09:00N 54°24' E 018°40'0 0.9
2018-Jun-18 08:31N 54°25' E 018°40'3 6.6
2018-Jun-18 08:00N 54°28' E 018°42'611.0
2018-Jun-18 07:30N 54°32' E 018°48'612.0
2018-Jun-18 07:00N 54°37' E 018°54'611.9
2018-Jun-18 06:31N 54°42' E 018°57'510.6
2018-Jun-18 06:00N 54°48' E 018°56'612.3
2018-Jun-18 05:30N 54°51' E 018°48'612.2
2018-Jun-18 05:01N 54°55' E 018°39'611.7
2018-Jun-18 04:30N 54°55' E 018°29'612.5
2018-Jun-18 04:00N 54°55' E 018°18'612.5
2018-Jun-18 03:30N 54°55' E 018°07'712.4
2018-Jun-18 02:57N 54°54' E 017°55'612.3
2018-Jun-18 02:28N 54°54' E 017°45'612.2
2018-Jun-18 02:00N 54°53' E 017°35'1112.3
2018-Jun-18 01:04N 54°52' E 017°15'112.1
2018-Jun-18 01:01N 54°52' E 017°14'2712.2
2018-Jun-17 22:48N 54°47' E 016°28'412.2
2018-Jun-17 22:26N 54°47' E 016°20'512.1
2018-Jun-17 22:00N 54°48' E 016°11'1612.1
2018-Jun-17 20:43N 54°49' E 015°44'512.3
2018-Jun-17 20:16N 54°50' E 015°35'312.4
2018-Jun-17 20:01N 54°50' E 015°29'612.4
2018-Jun-17 19:30N 54°51' E 015°18'612.3
2018-Jun-17 19:01N 54°51' E 015°08'612.2
2018-Jun-17 18:31N 54°52' E 014°57'612.2
2018-Jun-17 18:00N 54°53' E 014°47'612.1
2018-Jun-17 17:30N 54°54' E 014°37'612.2
2018-Jun-17 17:01N 54°55' E 014°26'712.6
2018-Jun-17 16:28N 54°57' E 014°15'812.6
2018-Jun-17 15:49N 54°59' E 014°01'612.7
2018-Jun-17 15:19N 55°01' E 013°51'413.0
2018-Jun-17 15:01N 55°02' E 013°44'1712.5
2018-Jun-17 13:41N 55°08' E 013°17'412.0
2018-Jun-17 13:23N 55°10' E 013°12'512.7
2018-Jun-17 13:00N 55°12' E 013°04'612.6
2018-Jun-17 12:30N 55°14' E 012°54'612.5
2018-Jun-17 12:00N 55°17' E 012°43'510.1
2018-Jun-17 11:31N 55°20' E 012°38'611.8
2018-Jun-17 11:01N 55°26' E 012°40'611.8
2018-Jun-17 10:30N 55°32' E 012°42'4 8.4
2018-Jun-17 10:01N 55°36' E 012°42'4 8.2
2018-Jun-17 09:31N 55°40' E 012°41'611.7
2018-Jun-17 09:01N 55°46' E 012°41'611.3
2018-Jun-17 08:31N 55°52' E 012°41'611.2
2018-Jun-17 08:01N 55°57' E 012°39'611.7
2018-Jun-17 07:31N 56°03' E 012°39'5 9.8
2018-Jun-17 07:00N 56°06' E 012°33'710.4
2018-Jun-17 06:22N 56°10' E 012°23'7111.4
2018-Jun-17 00:07N 57°16' E 011°32'111.7
2018-Jun-17 00:00N 57°17' E 011°31'611.7
2018-Jun-16 23:30N 57°23' E 011°28'611.6
2018-Jun-16 23:00N 57°28' E 011°23'611.9
2018-Jun-16 22:30N 57°30' E 011°13'611.6
2018-Jun-16 22:00N 57°33' E 011°04'108 9.0
2018-Jun-16 09:56N 57°42' E 007°42'511.7
2018-Jun-16 09:30N 57°42' E 007°33'611.5
2018-Jun-16 09:00N 57°43' E 007°22'611.3
2018-Jun-16 08:29N 57°43' E 007°11'611.4
2018-Jun-16 07:58N 57°43' E 007°00'5911.3
2018-Jun-16 02:45N 58°14' E 005°26'612.0
2018-Jun-16 02:17N 58°18' E 005°18'411.9
2018-Jun-16 01:58N 58°20' E 005°12'611.5
2018-Jun-16 01:27N 58°25' E 005°04'511.7
2018-Jun-16 01:00N 58°28' E 004°57'612.0
2018-Jun-16 00:30N 58°33' E 004°49'612.2
2018-Jun-16 00:00N 58°37' E 004°42'812.2
2018-Jun-15 23:23N 58°43' E 004°32'62 9.7
2018-Jun-15 16:57N 59°45' E 004°37'510.8
2018-Jun-15 16:30N 59°50' E 004°41'510.7
2018-Jun-15 15:59N 59°55' E 004°45'510.3
2018-Jun-15 15:30N 59°60' E 004°49'510.0
2018-Jun-15 15:00N 60°04' E 004°53'5 9.4
2018-Jun-15 14:30N 60°08' E 004°58'510.0
2018-Jun-15 14:00N 60°10' E 005°07'4 8.8
2018-Jun-15 13:30N 60°14' E 005°10'611.3
2018-Jun-15 12:59N 60°20' E 005°10'510.9
2018-Jun-15 12:30N 60°25' E 005°16'611.7
2018-Jun-15 12:00N 60°30' E 005°15'612.1
2018-Jun-15 11:30N 60°34' E 005°25'612.1
2018-Jun-15 11:00N 60°38' E 005°34'4 4.8
2018-Jun-15 10:08N 60°42' E 005°33'0 0.0
2018-Jun-15 09:41N 60°42' E 005°33'0 0.0
2018-Jun-15 09:29N 60°42' E 005°33'0 0.0
2018-Jun-15 08:59N 60°42' E 005°33'0 0.0
2018-Jun-15 08:29N 60°42' E 005°33'0 0.0
2018-Jun-15 07:59N 60°42' E 005°33'0 0.0
2018-Jun-15 07:29N 60°42' E 005°33'0 0.0
2018-Jun-15 06:17N 60°42' E 005°33'0 0.0
2018-Jun-15 05:53N 60°42' E 005°33'0 0.0
2018-Jun-15 05:26N 60°42' E 005°33'0 0.0
2018-Jun-15 04:53N 60°42' E 005°33'0 0.0
2018-Jun-15 04:26N 60°42' E 005°33'0 0.0
2018-Jun-15 03:56N 60°42' E 005°33'0 0.0
2018-Jun-15 03:29N 60°42' E 005°33'0 0.1
2018-Jun-15 02:56N 60°42' E 005°33'0 0.0
2018-Jun-15 02:29N 60°42' E 005°33'0 0.0
2018-Jun-15 01:59N 60°42' E 005°33'0 0.0
2018-Jun-15 01:26N 60°42' E 005°33'0 0.0
2018-Jun-15 00:59N 60°42' E 005°33'0 0.0
2018-Jun-15 00:29N 60°42' E 005°33'0 0.0
2018-Jun-14 23:56N 60°42' E 005°33'0 0.0
2018-Jun-14 23:29N 60°42' E 005°33'0 0.0
2018-Jun-14 22:56N 60°42' E 005°33'0 0.0
2018-Jun-14 22:11N 60°42' E 005°33'0 0.0
2018-Jun-14 21:47N 60°42' E 005°33'0 0.0
2018-Jun-14 21:29N 60°42' E 005°33'0 0.0
2018-Jun-14 20:53N 60°42' E 005°33'0 0.0
2018-Jun-14 20:29N 60°42' E 005°33'0 0.0
2018-Jun-14 19:56N 60°42' E 005°33'0 0.0
2018-Jun-14 19:29N 60°42' E 005°33'0 0.0
2018-Jun-14 18:59N 60°42' E 005°33'0 0.0
2018-Jun-14 18:29N 60°42' E 005°33'0 0.0
2018-Jun-14 17:59N 60°42' E 005°33'0 0.0
2018-Jun-14 16:53N 60°42' E 005°33'0 0.0
2018-Jun-14 16:23N 60°42' E 005°33'0 0.0
2018-Jun-14 15:59N 60°42' E 005°33'0 0.0
2018-Jun-14 15:17N 60°42' E 005°33'0 0.0
2018-Jun-14 14:59N 60°42' E 005°33'0 0.9
2018-Jun-14 14:30N 60°42' E 005°33'4 8.6
2018-Jun-14 14:00N 60°37' E 005°33'612.9
2018-Jun-14 13:30N 60°34' E 005°23'612.3
2018-Jun-14 13:00N 60°29' E 005°15'611.4
2018-Jun-14 12:29N 60°23' E 005°11'510.9
2018-Jun-14 12:00N 60°18' E 005°12'612.0
2018-Jun-14 11:29N 60°12' E 005°12'511.6
2018-Jun-14 11:00N 60°09' E 005°03'4 9.0
2018-Jun-14 10:30N 60°07' E 004°55'5 9.2
2018-Jun-14 09:59N 60°05' E 004°46'510.6
2018-Jun-14 09:31N 60°03' E 004°37'22912.5
2018-Jun-13 15:08N 58°46' W 002°28'112.3
2018-Jun-13 15:00N 58°46' W 002°31'611.9
2018-Jun-13 14:30N 58°44' W 002°42'510.9
2018-Jun-13 14:00N 58°43' W 002°52'3 6.4
2018-Jun-13 13:30N 58°43' W 002°58'3 5.3
2018-Jun-13 13:00N 58°43' W 003°03'3 5.4
2018-Jun-13 12:30N 58°43' W 003°08'4 7.5
2018-Jun-13 12:00N 58°43' W 003°15'510.7
2018-Jun-13 11:30N 58°43' W 003°26'20310.7
2018-Jun-12 16:38N 55°60' W 007°08'212.4
2018-Jun-12 16:28N 55°58' W 007°06'612.5
2018-Jun-12 16:01N 55°53' W 006°60'612.8
2018-Jun-12 15:30N 55°48' W 006°53'713.4
2018-Jun-12 15:01N 55°42' W 006°47'713.9
2018-Jun-12 14:30N 55°37' W 006°39'714.6
2018-Jun-12 14:00N 55°32' W 006°29'714.7
2018-Jun-12 13:30N 55°28' W 006°19'714.2
2018-Jun-12 13:00N 55°25' W 006°07'714.5
2018-Jun-12 12:30N 55°20' W 005°58'816.2
2018-Jun-12 12:00N 55°13' W 005°50'714.5
2018-Jun-12 11:30N 55°07' W 005°44'713.3
2018-Jun-12 11:00N 55°01' W 005°39'612.6
2018-Jun-12 10:30N 54°56' W 005°33'612.4
2018-Jun-12 10:00N 54°50' W 005°29'611.7
2018-Jun-12 09:30N 54°45' W 005°25'611.3
2018-Jun-12 09:00N 54°40' W 005°21'611.1
2018-Jun-12 08:30N 54°35' W 005°16'611.1
2018-Jun-12 08:00N 54°29' W 005°15'611.4
2018-Jun-12 07:30N 54°23' W 005°15'611.3
2018-Jun-12 07:00N 54°18' W 005°16'611.7
2018-Jun-12 06:30N 54°12' W 005°17'612.0
2018-Jun-12 06:00N 54°06' W 005°18'712.2
2018-Jun-12 05:28N 53°60' W 005°19'3311.7
2018-Jun-12 02:38N 53°27' W 005°27'410.2
2018-Jun-12 02:14N 53°23' W 005°28'310.1
2018-Jun-12 01:59N 53°20' W 005°28'510.1
2018-Jun-12 01:27N 53°15' W 005°29'4 9.9
2018-Jun-12 01:01N 53°10' W 005°30'510.1
2018-Jun-12 00:28N 53°05' W 005°31'510.2
2018-Jun-11 23:59N 53°00' W 005°32'5 9.8
2018-Jun-11 23:30N 52°55' W 005°34'610.6
2018-Jun-11 22:56N 52°49' W 005°35'510.9
2018-Jun-11 22:30N 52°45' W 005°36'6313.3
2018-Jun-11 17:48N 51°43' W 005°49'711.8
2018-Jun-11 17:15N 51°36' W 005°45'414.8
2018-Jun-11 17:00N 51°35' W 005°39'814.7
2018-Jun-11 16:30N 51°33' W 005°28'714.2
2018-Jun-11 16:00N 51°30' W 005°18'713.4
2018-Jun-11 15:30N 51°29' W 005°07'612.8
2018-Jun-11 15:00N 51°27' W 004°57'611.8
2018-Jun-11 14:30N 51°26' W 004°48'711.7
2018-Jun-11 13:56N 51°25' W 004°37'48 2.2
2018-Jun-10 16:21N 51°18' W 003°22'613.3
2018-Jun-10 15:55N 51°22' W 003°15'511.9
2018-Jun-10 15:30N 51°24' W 003°08'611.9
2018-Jun-10 14:57N 51°28' W 003°01'410.0
2018-Jun-10 14:30N 51°33' W 002°59'1 0.1
2018-Jun-10 07:40N 51°33' W 002°59'0 0.0
2018-Jun-10 07:28N 51°33' W 002°59'0 0.0
2018-Jun-10 06:19N 51°33' W 002°59'0 0.0
2018-Jun-10 05:40N 51°33' W 002°59'0 0.0
2018-Jun-10 05:22N 51°33' W 002°59'0 0.0
2018-Jun-10 04:55N 51°33' W 002°59'0 0.0
2018-Jun-10 04:28N 51°33' W 002°59'0 0.0
2018-Jun-10 03:58N 51°33' W 002°59'0 0.0
2018-Jun-10 03:25N 51°33' W 002°59'0 0.0
2018-Jun-10 02:58N 51°33' W 002°59'0 0.0
2018-Jun-10 02:28N 51°33' W 002°59'0 0.0
2018-Jun-10 01:58N 51°33' W 002°59'0 0.0
2018-Jun-10 01:19N 51°33' W 002°59'0 0.0
2018-Jun-10 00:58N 51°33' W 002°59'0 0.0
2018-Jun-10 00:28N 51°33' W 002°59'0 0.0
2018-Jun-09 23:58N 51°33' W 002°59'0 0.0
2018-Jun-09 23:28N 51°33' W 002°59'0 0.0
2018-Jun-09 22:58N 51°33' W 002°59'0 0.0
2018-Jun-09 22:28N 51°33' W 002°59'0 0.0
2018-Jun-09 21:58N 51°33' W 002°59'0 0.0
2018-Jun-09 21:28N 51°33' W 002°59'0 0.0
2018-Jun-09 20:58N 51°33' W 002°59'0 0.0
2018-Jun-09 20:25N 51°33' W 002°59'0 0.0
2018-Jun-09 19:58N 51°33' W 002°59'0 0.0
2018-Jun-09 19:19N 51°33' W 002°59'0 0.0
2018-Jun-09 18:37N 51°33' W 002°59'0 0.0
2018-Jun-09 18:22N 51°33' W 002°59'0 0.0
2018-Jun-09 17:55N 51°33' W 002°59'0 0.0
2018-Jun-09 17:28N 51°33' W 002°59'0 0.0
2018-Jun-09 16:58N 51°33' W 002°59'0 0.0
2018-Jun-09 07:52N 51°33' W 002°59'0 0.0
2018-Jun-09 07:28N 51°33' W 002°59'0 0.0
2018-Jun-09 06:55N 51°33' W 002°59'0 0.0
2018-Jun-09 06:16N 51°33' W 002°59'0 0.0
2018-Jun-09 05:58N 51°33' W 002°59'0 0.0
2018-Jun-09 05:22N 51°33' W 002°59'0 0.0
2018-Jun-09 04:58N 51°33' W 002°59'0 0.0
2018-Jun-09 04:28N 51°33' W 002°59'0 0.0
2018-Jun-09 03:58N 51°33' W 002°59'0 0.0
2018-Jun-09 01:04N 51°33' W 002°59'0 0.2
2018-Jun-09 00:58N 51°33' W 002°59'0 0.1
2018-Jun-09 00:25N 51°33' W 002°59'0 0.0
2018-Jun-08 23:58N 51°33' W 002°59'0 0.0
2018-Jun-08 23:28N 51°33' W 002°59'0 0.0
2018-Jun-08 22:58N 51°33' W 002°59'0 0.0
2018-Jun-08 22:28N 51°33' W 002°59'0 0.0
2018-Jun-08 21:58N 51°33' W 002°59'0 0.0
2018-Jun-08 21:28N 51°33' W 002°59'0 0.0
2018-Jun-08 20:52N 51°33' W 002°59'0 0.0
2018-Jun-08 20:28N 51°33' W 002°59'0 0.0
2018-Jun-08 19:58N 51°33' W 002°59'  
Track history (hours):
 
Tides and Currents Weather Stations Pressure Air Temp Water Temp Dewpoint Dewpoint Depression Visibility Wind Speed Wind Dir Waves Ship Positions

Wilson Newcastle

Last reported at 2018-Jun-18 19:30 UTC. Time now 2018-Jun-18 19:29 UTC.
Position N 54°24' E 018°40'.

Length 123 m; draft 7.6 m.

Type: Ship. MMSI: 215062000.

Date/timePositionNaut miles runAvg speedWind from/ knotsBaromVisibWave heightAir tempDewpointWater temp
2018-Jun-18 19:30N 54°24' E 018°40'0 0.0
2018-Jun-18 19:00N 54°24' E 018°40'0 0.0
2018-Jun-18 18:30N 54°24' E 018°40'0 0.0
2018-Jun-18 18:00N 54°24' E 018°40'0 0.0
2018-Jun-18 17:30N 54°24' E 018°40'0 0.0
2018-Jun-18 17:00N 54°24' E 018°40'0 0.0
2018-Jun-18 16:30N 54°24' E 018°40'0 0.0
2018-Jun-18 16:00N 54°24' E 018°40'0 0.0
2018-Jun-18 15:30N 54°24' E 018°40'0 0.0
2018-Jun-18 15:00N 54°24' E 018°40'0 0.0
2018-Jun-18 14:30N 54°24' E 018°40'0 0.0
2018-Jun-18 14:00N 54°24' E 018°40'0 0.0
2018-Jun-18 13:30N 54°24' E 018°40'0 0.0
2018-Jun-18 13:00N 54°24' E 018°40'0 0.0
2018-Jun-18 12:30N 54°24' E 018°40'0 0.0
2018-Jun-18 12:00N 54°24' E 018°40'0 0.0
2018-Jun-18 11:30N 54°24' E 018°40'0 0.0
2018-Jun-18 11:00N 54°24' E 018°40'0 0.0
2018-Jun-18 10:30N 54°24' E 018°40'0 0.0
2018-Jun-18 10:00N 54°24' E 018°40'0 0.0
2018-Jun-18 09:30N 54°24' E 018°40'0 0.0
2018-Jun-18 09:00N 54°24' E 018°40'0 0.9
2018-Jun-18 08:31N 54°25' E 018°40'3 6.6
2018-Jun-18 08:00N 54°28' E 018°42'611.0
2018-Jun-18 07:30N 54°32' E 018°48'612.0
2018-Jun-18 07:00N 54°37' E 018°54'611.9
2018-Jun-18 06:31N 54°42' E 018°57'510.6
2018-Jun-18 06:00N 54°48' E 018°56'612.3
2018-Jun-18 05:30N 54°51' E 018°48'612.2
2018-Jun-18 05:01N 54°55' E 018°39'611.7
2018-Jun-18 04:30N 54°55' E 018°29'612.5
2018-Jun-18 04:00N 54°55' E 018°18'612.5
2018-Jun-18 03:30N 54°55' E 018°07'712.4
2018-Jun-18 02:57N 54°54' E 017°55'612.3
2018-Jun-18 02:28N 54°54' E 017°45'612.2
2018-Jun-18 02:00N 54°53' E 017°35'1112.3
2018-Jun-18 01:04N 54°52' E 017°15'112.1
2018-Jun-18 01:01N 54°52' E 017°14'2712.2
2018-Jun-17 22:48N 54°47' E 016°28'412.2
2018-Jun-17 22:26N 54°47' E 016°20'512.1
2018-Jun-17 22:00N 54°48' E 016°11'1612.1
2018-Jun-17 20:43N 54°49' E 015°44'512.3
2018-Jun-17 20:16N 54°50' E 015°35'312.4
2018-Jun-17 20:01N 54°50' E 015°29'612.4
2018-Jun-17 19:30N 54°51' E 015°18'612.3
2018-Jun-17 19:01N 54°51' E 015°08'612.2
2018-Jun-17 18:31N 54°52' E 014°57'612.2
2018-Jun-17 18:00N 54°53' E 014°47'612.1
2018-Jun-17 17:30N 54°54' E 014°37'612.2
2018-Jun-17 17:01N 54°55' E 014°26'712.6
2018-Jun-17 16:28N 54°57' E 014°15'812.6
2018-Jun-17 15:49N 54°59' E 014°01'612.7
2018-Jun-17 15:19N 55°01' E 013°51'413.0
2018-Jun-17 15:01N 55°02' E 013°44'1712.5
2018-Jun-17 13:41N 55°08' E 013°17'412.0
2018-Jun-17 13:23N 55°10' E 013°12'512.7
2018-Jun-17 13:00N 55°12' E 013°04'612.6
2018-Jun-17 12:30N 55°14' E 012°54'612.5
2018-Jun-17 12:00N 55°17' E 012°43'510.1
2018-Jun-17 11:31N 55°20' E 012°38'611.8
2018-Jun-17 11:01N 55°26' E 012°40'611.8
2018-Jun-17 10:30N 55°32' E 012°42'4 8.4
2018-Jun-17 10:01N 55°36' E 012°42'4 8.2
2018-Jun-17 09:31N 55°40' E 012°41'611.7
2018-Jun-17 09:01N 55°46' E 012°41'611.3
2018-Jun-17 08:31N 55°52' E 012°41'611.2
2018-Jun-17 08:01N 55°57' E 012°39'611.7
2018-Jun-17 07:31N 56°03' E 012°39'5 9.8
2018-Jun-17 07:00N 56°06' E 012°33'710.4
2018-Jun-17 06:22N 56°10' E 012°23'7111.4
2018-Jun-17 00:07N 57°16' E 011°32'111.7
2018-Jun-17 00:00N 57°17' E 011°31'611.7
2018-Jun-16 23:30N 57°23' E 011°28'611.6
2018-Jun-16 23:00N 57°28' E 011°23'611.9
2018-Jun-16 22:30N 57°30' E 011°13'611.6
2018-Jun-16 22:00N 57°33' E 011°04'108 9.0
2018-Jun-16 09:56N 57°42' E 007°42'511.7
2018-Jun-16 09:30N 57°42' E 007°33'611.5
2018-Jun-16 09:00N 57°43' E 007°22'611.3
2018-Jun-16 08:29N 57°43' E 007°11'611.4
2018-Jun-16 07:58N 57°43' E 007°00'5911.3
2018-Jun-16 02:45N 58°14' E 005°26'612.0
2018-Jun-16 02:17N 58°18' E 005°18'411.9
2018-Jun-16 01:58N 58°20' E 005°12'611.5
2018-Jun-16 01:27N 58°25' E 005°04'511.7
2018-Jun-16 01:00N 58°28' E 004°57'612.0
2018-Jun-16 00:30N 58°33' E 004°49'612.2
2018-Jun-16 00:00N 58°37' E 004°42'812.2
2018-Jun-15 23:23N 58°43' E 004°32'62 9.7
2018-Jun-15 16:57N 59°45' E 004°37'510.8
2018-Jun-15 16:30N 59°50' E 004°41'510.7
2018-Jun-15 15:59N 59°55' E 004°45'510.3
2018-Jun-15 15:30N 59°60' E 004°49'510.0
2018-Jun-15 15:00N 60°04' E 004°53'5 9.4
2018-Jun-15 14:30N 60°08' E 004°58'510.0
2018-Jun-15 14:00N 60°10' E 005°07'4 8.8
2018-Jun-15 13:30N 60°14' E 005°10'611.3
2018-Jun-15 12:59N 60°20' E 005°10'510.9
2018-Jun-15 12:30N 60°25' E 005°16'611.7
2018-Jun-15 12:00N 60°30' E 005°15'612.1
2018-Jun-15 11:30N 60°34' E 005°25'612.1
2018-Jun-15 11:00N 60°38' E 005°34'4 4.8
2018-Jun-15 10:08N 60°42' E 005°33'0 0.0
2018-Jun-15 09:41N 60°42' E 005°33'0 0.0
2018-Jun-15 09:29N 60°42' E 005°33'0 0.0
2018-Jun-15 08:59N 60°42' E 005°33'0 0.0
2018-Jun-15 08:29N 60°42' E 005°33'0 0.0
2018-Jun-15 07:59N 60°42' E 005°33'0 0.0
2018-Jun-15 07:29N 60°42' E 005°33'0 0.0
2018-Jun-15 06:17N 60°42' E 005°33'0 0.0
2018-Jun-15 05:53N 60°42' E 005°33'0 0.0
2018-Jun-15 05:26N 60°42' E 005°33'0 0.0
2018-Jun-15 04:53N 60°42' E 005°33'0 0.0
2018-Jun-15 04:26N 60°42' E 005°33'0 0.0
2018-Jun-15 03:56N 60°42' E 005°33'0 0.0
2018-Jun-15 03:29N 60°42' E 005°33'0 0.1
2018-Jun-15 02:56N 60°42' E 005°33'0 0.0
2018-Jun-15 02:29N 60°42' E 005°33'0 0.0
2018-Jun-15 01:59N 60°42' E 005°33'0 0.0
2018-Jun-15 01:26N 60°42' E 005°33'0 0.0
2018-Jun-15 00:59N 60°42' E 005°33'0 0.0
2018-Jun-15 00:29N 60°42' E 005°33'0 0.0
2018-Jun-14 23:56N 60°42' E 005°33'0 0.0
2018-Jun-14 23:29N 60°42' E 005°33'0 0.0
2018-Jun-14 22:56N 60°42' E 005°33'0 0.0
2018-Jun-14 22:11N 60°42' E 005°33'0 0.0
2018-Jun-14 21:47N 60°42' E 005°33'0 0.0
2018-Jun-14 21:29N 60°42' E 005°33'0 0.0
2018-Jun-14 20:53N 60°42' E 005°33'0 0.0
2018-Jun-14 20:29N 60°42' E 005°33'0 0.0
2018-Jun-14 19:56N 60°42' E 005°33'0 0.0
2018-Jun-14 19:29N 60°42' E 005°33'0 0.0
2018-Jun-14 18:59N 60°42' E 005°33'0 0.0
2018-Jun-14 18:29N 60°42' E 005°33'0 0.0
2018-Jun-14 17:59N 60°42' E 005°33'0 0.0
2018-Jun-14 16:53N 60°42' E 005°33'0 0.0
2018-Jun-14 16:23N 60°42' E 005°33'0 0.0
2018-Jun-14 15:59N 60°42' E 005°33'0 0.0
2018-Jun-14 15:17N 60°42' E 005°33'0 0.0
2018-Jun-14 14:59N 60°42' E 005°33'0 0.9
2018-Jun-14 14:30N 60°42' E 005°33'4 8.6
2018-Jun-14 14:00N 60°37' E 005°33'612.9
2018-Jun-14 13:30N 60°34' E 005°23'612.3
2018-Jun-14 13:00N 60°29' E 005°15'611.4
2018-Jun-14 12:29N 60°23' E 005°11'510.9
2018-Jun-14 12:00N 60°18' E 005°12'612.0
2018-Jun-14 11:29N 60°12' E 005°12'511.6
2018-Jun-14 11:00N 60°09' E 005°03'4 9.0
2018-Jun-14 10:30N 60°07' E 004°55'5 9.2
2018-Jun-14 09:59N 60°05' E 004°46'510.6
2018-Jun-14 09:31N 60°03' E 004°37'22912.5
2018-Jun-13 15:08N 58°46' W 002°28'112.3
2018-Jun-13 15:00N 58°46' W 002°31'611.9
2018-Jun-13 14:30N 58°44' W 002°42'510.9
2018-Jun-13 14:00N 58°43' W 002°52'3 6.4
2018-Jun-13 13:30N 58°43' W 002°58'3 5.3
2018-Jun-13 13:00N 58°43' W 003°03'3 5.4
2018-Jun-13 12:30N 58°43' W 003°08'4 7.5
2018-Jun-13 12:00N 58°43' W 003°15'510.7
2018-Jun-13 11:30N 58°43' W 003°26'20310.7
2018-Jun-12 16:38N 55°60' W 007°08'212.4
2018-Jun-12 16:28N 55°58' W 007°06'612.5
2018-Jun-12 16:01N 55°53' W 006°60'612.8
2018-Jun-12 15:30N 55°48' W 006°53'713.4
2018-Jun-12 15:01N 55°42' W 006°47'713.9
2018-Jun-12 14:30N 55°37' W 006°39'714.6
2018-Jun-12 14:00N 55°32' W 006°29'714.7
2018-Jun-12 13:30N 55°28' W 006°19'714.2
2018-Jun-12 13:00N 55°25' W 006°07'714.5
2018-Jun-12 12:30N 55°20' W 005°58'816.2
2018-Jun-12 12:00N 55°13' W 005°50'714.5
2018-Jun-12 11:30N 55°07' W 005°44'713.3
2018-Jun-12 11:00N 55°01' W 005°39'612.6
2018-Jun-12 10:30N 54°56' W 005°33'612.4
2018-Jun-12 10:00N 54°50' W 005°29'611.7
2018-Jun-12 09:30N 54°45' W 005°25'611.3
2018-Jun-12 09:00N 54°40' W 005°21'611.1
2018-Jun-12 08:30N 54°35' W 005°16'611.1
2018-Jun-12 08:00N 54°29' W 005°15'611.4
2018-Jun-12 07:30N 54°23' W 005°15'611.3
2018-Jun-12 07:00N 54°18' W 005°16'611.7
2018-Jun-12 06:30N 54°12' W 005°17'612.0
2018-Jun-12 06:00N 54°06' W 005°18'712.2
2018-Jun-12 05:28N 53°60' W 005°19'3311.7
2018-Jun-12 02:38N 53°27' W 005°27'410.2
2018-Jun-12 02:14N 53°23' W 005°28'310.1
2018-Jun-12 01:59N 53°20' W 005°28'510.1
2018-Jun-12 01:27N 53°15' W 005°29'4 9.9
2018-Jun-12 01:01N 53°10' W 005°30'510.1
2018-Jun-12 00:28N 53°05' W 005°31'510.2
2018-Jun-11 23:59N 53°00' W 005°32'5 9.8
2018-Jun-11 23:30N 52°55' W 005°34'610.6
2018-Jun-11 22:56N 52°49' W 005°35'510.9
2018-Jun-11 22:30N 52°45' W 005°36'6313.3
2018-Jun-11 17:48N 51°43' W 005°49'711.8
2018-Jun-11 17:15N 51°36' W 005°45'414.8
2018-Jun-11 17:00N 51°35' W 005°39'814.7
2018-Jun-11 16:30N 51°33' W 005°28'714.2
2018-Jun-11 16:00N 51°30' W 005°18'713.4
2018-Jun-11 15:30N 51°29' W 005°07'612.8
2018-Jun-11 15:00N 51°27' W 004°57'611.8
2018-Jun-11 14:30N 51°26' W 004°48'711.7
2018-Jun-11 13:56N 51°25' W 004°37'48 2.2
2018-Jun-10 16:21N 51°18' W 003°22'613.3
2018-Jun-10 15:55N 51°22' W 003°15'511.9
2018-Jun-10 15:30N 51°24' W 003°08'611.9
2018-Jun-10 14:57N 51°28' W 003°01'410.0
2018-Jun-10 14:30N 51°33' W 002°59'1 0.1
2018-Jun-10 07:40N 51°33' W 002°59'0 0.0
2018-Jun-10 07:28N 51°33' W 002°59'0 0.0
2018-Jun-10 06:19N 51°33' W 002°59'0 0.0
2018-Jun-10 05:40N 51°33' W 002°59'0 0.0
2018-Jun-10 05:22N 51°33' W 002°59'0 0.0
2018-Jun-10 04:55N 51°33' W 002°59'0 0.0
2018-Jun-10 04:28N 51°33' W 002°59'0 0.0
2018-Jun-10 03:58N 51°33' W 002°59'0 0.0
2018-Jun-10 03:25N 51°33' W 002°59'0 0.0
2018-Jun-10 02:58N 51°33' W 002°59'0 0.0
2018-Jun-10 02:28N 51°33' W 002°59'0 0.0
2018-Jun-10 01:58N 51°33' W 002°59'0 0.0
2018-Jun-10 01:19N 51°33' W 002°59'0 0.0
2018-Jun-10 00:58N 51°33' W 002°59'0 0.0
2018-Jun-10 00:28N 51°33' W 002°59'0 0.0
2018-Jun-09 23:58N 51°33' W 002°59'0 0.0
2018-Jun-09 23:28N 51°33' W 002°59'0 0.0
2018-Jun-09 22:58N 51°33' W 002°59'0 0.0
2018-Jun-09 22:28N 51°33' W 002°59'0 0.0
2018-Jun-09 21:58N 51°33' W 002°59'0 0.0
2018-Jun-09 21:28N 51°33' W 002°59'0 0.0
2018-Jun-09 20:58N 51°33' W 002°59'0 0.0
2018-Jun-09 20:25N 51°33' W 002°59'0 0.0
2018-Jun-09 19:58N 51°33' W 002°59'0 0.0
2018-Jun-09 19:19N 51°33' W 002°59'0 0.0
2018-Jun-09 18:37N 51°33' W 002°59'0 0.0
2018-Jun-09 18:22N 51°33' W 002°59'0 0.0
2018-Jun-09 17:55N 51°33' W 002°59'0 0.0
2018-Jun-09 17:28N 51°33' W 002°59'0 0.0
2018-Jun-09 16:58N 51°33' W 002°59'0 0.0
2018-Jun-09 07:52N 51°33' W 002°59'0 0.0
2018-Jun-09 07:28N 51°33' W 002°59'0 0.0
2018-Jun-09 06:55N 51°33' W 002°59'0 0.0
2018-Jun-09 06:16N 51°33' W 002°59'0 0.0
2018-Jun-09 05:58N 51°33' W 002°59'0 0.0
2018-Jun-09 05:22N 51°33' W 002°59'0 0.0
2018-Jun-09 04:58N 51°33' W 002°59'0 0.0
2018-Jun-09 04:28N 51°33' W 002°59'0 0.0
2018-Jun-09 03:58N 51°33' W 002°59'0 0.0
2018-Jun-09 01:04N 51°33' W 002°59'0 0.2
2018-Jun-09 00:58N 51°33' W 002°59'0 0.1
2018-Jun-09 00:25N 51°33' W 002°59'0 0.0
2018-Jun-08 23:58N 51°33' W 002°59'0 0.0
2018-Jun-08 23:28N 51°33' W 002°59'0 0.0
2018-Jun-08 22:58N 51°33' W 002°59'0 0.0
2018-Jun-08 22:28N 51°33' W 002°59'0 0.0
2018-Jun-08 21:58N 51°33' W 002°59'0 0.0
2018-Jun-08 21:28N 51°33' W 002°59'0 0.0
2018-Jun-08 20:52N 51°33' W 002°59'0 0.0
2018-Jun-08 20:28N 51°33' W 002°59'0 0.0
2018-Jun-08 19:58N 51°33' W 002°59'  

Dump ship's entire track history